createdAt,value
2022-11-02T00:01:54.111Z,12.10
2022-11-02T00:04:23.105Z,12.04
2022-11-02T00:06:52.037Z,11.98
2022-11-02T00:09:22.318Z,11.98
2022-11-02T00:11:51.275Z,11.95
2022-11-02T00:14:20.253Z,11.85
2022-11-02T00:16:49.218Z,11.88
2022-11-02T00:19:18.313Z,12.07
2022-11-02T00:21:47.429Z,12.08
2022-11-02T00:24:16.696Z,12.17
2022-11-02T00:26:47.032Z,12.09
2022-11-02T00:29:16.036Z,12.12
2022-11-02T00:31:45.035Z,11.98
2022-11-02T00:34:14.286Z,12.03
2022-11-02T00:36:43.348Z,12.00
2022-11-02T00:39:12.277Z,12.15
2022-11-02T00:41:41.208Z,12.14
2022-11-02T00:44:12.685Z,12.12
2022-11-02T00:46:41.718Z,12.14
2022-11-02T00:49:10.649Z,12.18
2022-11-02T00:51:39.605Z,12.27
2022-11-02T00:54:08.553Z,12.15
2022-11-02T00:56:39.021Z,12.25
2022-11-02T00:59:08.008Z,12.32
2022-11-02T01:01:38.416Z,12.19
2022-11-02T01:04:07.492Z,12.03
2022-11-02T01:06:38.471Z,12.05
2022-11-02T01:09:07.448Z,12.09
2022-11-02T01:11:36.496Z,12.02
2022-11-02T01:14:05.415Z,12.07
2022-11-02T01:16:34.432Z,12.01
2022-11-02T01:19:04.807Z,11.91
2022-11-02T01:21:33.806Z,11.97
2022-11-02T01:24:04.518Z,12.11
2022-11-02T01:26:34.498Z,12.00
2022-11-02T01:29:03.482Z,11.93
2022-11-02T01:31:32.414Z,11.90
2022-11-02T01:34:01.368Z,11.91
2022-11-02T01:36:31.643Z,11.86
2022-11-02T01:39:00.576Z,11.76
2022-11-02T01:41:30.023Z,11.67
2022-11-02T01:44:00.854Z,11.70
2022-11-02T01:46:36.289Z,11.71
2022-11-02T01:49:09.915Z,11.64
2022-11-02T01:51:45.332Z,11.64
2022-11-02T01:54:17.529Z,11.63
2022-11-02T01:56:51.453Z,11.63
2022-11-02T01:59:24.923Z,11.75
2022-11-02T02:01:54.309Z,11.53
2022-11-02T02:04:24.939Z,11.61
2022-11-02T02:06:58.130Z,11.69
2022-11-02T02:09:29.644Z,11.62
2022-11-02T02:11:58.664Z,11.58
2022-11-02T02:14:27.815Z,11.66
2022-11-02T02:17:19.118Z,11.83
2022-11-02T02:19:55.756Z,11.87
2022-11-02T02:22:48.041Z,11.78
2022-11-02T02:25:41.062Z,11.88
2022-11-02T02:28:20.382Z,11.92
2022-11-02T02:30:56.511Z,11.89
2022-11-02T02:33:32.673Z,11.92
2022-11-02T02:36:07.542Z,11.97
2022-11-02T02:38:41.843Z,12.01
2022-11-02T02:41:15.519Z,11.98
2022-11-02T02:43:50.463Z,12.04
2022-11-02T02:46:22.964Z,12.03
2022-11-02T02:48:57.100Z,12.01
2022-11-02T02:51:29.747Z,11.99
2022-11-02T02:54:03.441Z,11.91
2022-11-02T02:56:40.634Z,12.01
2022-11-02T02:59:21.176Z,11.81
2022-11-02T03:01:51.148Z,11.85
2022-11-02T03:04:20.278Z,11.89
2022-11-02T03:06:53.695Z,11.85
2022-11-02T03:09:33.686Z,11.81
2022-11-02T03:12:17.706Z,11.68
2022-11-02T03:15:02.088Z,11.39
2022-11-02T03:17:39.641Z,11.26
2022-11-02T03:20:20.107Z,11.19
2022-11-02T03:23:00.132Z,11.18
2022-11-02T03:25:37.623Z,11.07
2022-11-02T03:28:18.778Z,10.96
2022-11-02T03:30:58.709Z,10.98
2022-11-02T03:33:33.918Z,11.09
2022-11-02T03:36:08.754Z,11.00
2022-11-02T03:38:45.056Z,11.00
2022-11-02T03:41:18.888Z,11.03
2022-11-02T03:43:49.948Z,10.97
2022-11-02T03:46:22.524Z,11.11
2022-11-02T03:48:53.791Z,11.02
2022-11-02T03:51:25.276Z,11.15
2022-11-02T03:54:00.276Z,11.10
2022-11-02T03:56:36.588Z,11.19
2022-11-02T03:59:06.263Z,11.24
2022-11-02T04:01:42.744Z,11.22
2022-11-02T04:04:12.926Z,11.30
2022-11-02T04:06:43.788Z,11.26
2022-11-02T04:09:14.032Z,11.22
2022-11-02T04:12:01.075Z,11.27
2022-11-02T04:14:41.058Z,11.24
2022-11-02T04:17:33.018Z,11.22
2022-11-02T04:20:06.218Z,11.23
2022-11-02T04:22:52.849Z,11.16
2022-11-02T04:25:22.082Z,11.32
2022-11-02T04:28:08.964Z,11.27
2022-11-02T04:30:50.881Z,11.37
2022-11-02T04:33:34.692Z,11.36
2022-11-02T04:36:21.744Z,11.39
2022-11-02T04:38:54.439Z,11.32
2022-11-02T04:41:45.810Z,11.27
2022-11-02T04:44:38.340Z,11.30
2022-11-02T04:47:13.802Z,11.34
2022-11-02T04:49:44.595Z,11.19
2022-11-02T04:52:17.466Z,11.17
2022-11-02T04:54:51.038Z,11.12
2022-11-02T04:57:21.052Z,11.12
2022-11-02T04:59:50.225Z,11.14
2022-11-02T05:02:19.331Z,11.19
2022-11-02T05:04:51.152Z,11.18
2022-11-02T05:07:20.635Z,11.19
2022-11-02T05:09:49.990Z,11.22
2022-11-02T05:12:19.520Z,11.24
2022-11-02T05:14:49.279Z,11.26
2022-11-02T05:17:18.319Z,11.24
2022-11-02T05:19:47.324Z,11.21
2022-11-02T05:22:17.635Z,11.25
2022-11-02T05:24:47.035Z,11.21
2022-11-02T05:27:16.218Z,11.23
2022-11-02T05:29:47.109Z,11.15
2022-11-02T05:32:16.060Z,11.29
2022-11-02T05:34:45.331Z,11.30
2022-11-02T05:37:15.129Z,11.27
2022-11-02T05:39:47.855Z,11.31
2022-11-02T05:42:19.586Z,11.31
2022-11-02T05:44:48.736Z,11.26
2022-11-02T05:47:18.795Z,11.30
2022-11-02T05:49:47.750Z,11.34
2022-11-02T05:52:16.828Z,11.33
2022-11-02T05:54:47.122Z,11.29
2022-11-02T05:57:17.048Z,11.24
2022-11-02T05:59:49.225Z,11.21
2022-11-02T06:02:20.865Z,11.15
2022-11-02T06:04:52.324Z,11.01
2022-11-02T06:07:21.300Z,10.99
2022-11-02T06:09:51.565Z,10.95
2022-11-02T06:12:20.560Z,10.99
2022-11-02T06:14:49.510Z,11.09
2022-11-02T06:17:18.435Z,11.04
2022-11-02T06:19:47.396Z,11.07
2022-11-02T06:22:16.356Z,11.10
2022-11-02T06:24:45.291Z,11.14
2022-11-02T06:27:15.532Z,11.16
2022-11-02T06:29:45.357Z,11.30
2022-11-02T06:32:14.319Z,11.27
2022-11-02T06:34:43.242Z,11.26
2022-11-02T06:37:12.165Z,11.31
2022-11-02T06:39:41.308Z,11.28
2022-11-02T06:42:10.469Z,11.32
2022-11-02T06:44:40.973Z,11.34
2022-11-02T06:47:09.950Z,11.33
2022-11-02T06:49:38.895Z,11.31
2022-11-02T06:52:07.852Z,11.29
2022-11-02T06:54:36.760Z,11.33
2022-11-02T06:57:05.656Z,11.22
2022-11-02T06:59:34.642Z,11.14
2022-11-02T07:02:05.101Z,11.16
2022-11-02T07:04:34.141Z,11.18
2022-11-02T07:07:03.123Z,11.26
2022-11-02T07:09:32.199Z,11.15
2022-11-02T07:12:01.186Z,11.13
2022-11-02T07:14:30.350Z,11.22
2022-11-02T07:16:59.366Z,11.23
2022-11-02T07:19:29.623Z,11.27
2022-11-02T07:21:58.611Z,11.37
2022-11-02T07:24:27.508Z,11.40
2022-11-02T07:26:56.563Z,11.46
2022-11-02T07:29:25.609Z,11.48
2022-11-02T07:31:55.702Z,11.52
2022-11-02T07:34:24.677Z,11.54
2022-11-02T07:36:56.319Z,11.64
2022-11-02T07:39:26.179Z,11.68
2022-11-02T07:41:55.254Z,11.79
2022-11-02T07:44:26.309Z,11.92
2022-11-02T07:46:55.365Z,12.04
2022-11-02T07:49:24.373Z,11.99
2022-11-02T07:51:54.628Z,11.98
2022-11-02T07:54:23.828Z,11.94
2022-11-02T07:56:53.034Z,11.95
2022-11-02T07:59:22.095Z,12.05
2022-11-02T08:01:53.167Z,12.02
2022-11-02T08:06:59.719Z,12.08
2022-11-02T08:09:28.644Z,12.08
2022-11-02T08:11:58.590Z,12.08
2022-11-02T08:14:27.502Z,12.18
2022-11-02T08:16:56.520Z,12.19
2022-11-02T08:19:25.440Z,12.25
2022-11-02T08:21:56.377Z,12.32
2022-11-02T08:24:25.324Z,12.33
2022-11-02T08:26:55.040Z,12.36
2022-11-02T08:29:24.179Z,12.35
2022-11-02T08:31:53.131Z,12.38
2022-11-02T08:34:22.054Z,12.42
2022-11-02T08:36:50.972Z,12.41
2022-11-02T08:39:21.276Z,12.42
2022-11-02T08:41:50.356Z,12.41
2022-11-02T08:44:19.717Z,12.44
2022-11-02T08:46:48.666Z,12.48
2022-11-02T08:49:18.653Z,12.72
2022-11-02T08:51:47.784Z,12.80
2022-11-02T08:54:17.086Z,12.90
2022-11-02T08:56:47.338Z,12.79
2022-11-02T08:59:16.292Z,12.78
2022-11-02T09:01:45.334Z,12.92
2022-11-02T09:04:14.393Z,12.97
2022-11-02T09:06:43.336Z,12.77
2022-11-02T09:09:12.430Z,12.77
2022-11-02T09:11:41.348Z,12.70
2022-11-02T09:14:11.712Z,12.74
2022-11-02T09:16:41.784Z,12.84
2022-11-02T09:19:10.970Z,12.86
2022-11-02T09:21:39.924Z,12.81
2022-11-02T09:24:09.683Z,12.82
2022-11-02T09:26:38.623Z,12.74
2022-11-02T09:29:07.535Z,12.73
2022-11-02T09:31:37.833Z,12.79
2022-11-02T09:34:06.791Z,12.85
2022-11-02T09:36:35.756Z,12.81
2022-11-02T09:39:04.750Z,12.81
2022-11-02T09:41:41.410Z,12.82
2022-11-02T09:44:18.288Z,12.67
2022-11-02T09:47:17.694Z,12.28
2022-11-02T09:49:38.635Z,12.00
2022-11-02T09:52:12.605Z,12.06
2022-11-02T09:54:46.574Z,12.09
2022-11-02T09:57:18.394Z,12.10
2022-11-02T09:59:47.381Z,12.20
2022-11-02T10:02:27.148Z,12.13
2022-11-02T10:05:16.292Z,12.27
2022-11-02T10:08:05.037Z,12.35
2022-11-02T10:10:38.746Z,12.35
2022-11-02T10:13:18.983Z,12.41
2022-11-02T10:15:52.016Z,12.52
2022-11-02T10:18:25.424Z,12.51
2022-11-02T10:20:58.589Z,12.33
2022-11-02T10:23:33.188Z,12.25
2022-11-02T10:26:03.412Z,12.14
2022-11-02T10:28:35.597Z,12.11
2022-11-02T10:31:05.676Z,11.97
2022-11-02T10:33:37.745Z,11.92
2022-11-02T10:36:22.540Z,11.84
2022-11-02T10:39:05.296Z,11.71
2022-11-02T10:41:48.931Z,11.67
2022-11-02T10:44:31.927Z,12.08
2022-11-02T10:47:12.065Z,12.80
2022-11-02T10:50:12.128Z,12.64
2022-11-02T10:52:44.712Z,12.82
2022-11-02T10:55:22.320Z,12.35
2022-11-02T10:57:52.104Z,13.02
2022-11-02T11:00:30.213Z,12.57
2022-11-02T11:03:07.882Z,12.36
2022-11-02T11:05:51.984Z,12.36
2022-11-02T11:08:41.448Z,12.13
2022-11-02T11:11:21.815Z,12.10
2022-11-02T11:16:51.894Z,12.88
2022-11-02T11:22:26.053Z,12.85
2022-11-02T11:24:57.342Z,12.63
2022-11-02T11:27:26.347Z,12.57
2022-11-02T11:29:57.931Z,13.50
2022-11-02T11:32:30.405Z,13.81
2022-11-02T11:35:03.083Z,13.22
2022-11-02T11:37:34.053Z,14.28
2022-11-02T11:40:05.846Z,14.33
2022-11-02T11:42:37.933Z,13.93
2022-11-02T11:45:14.894Z,13.07
2022-11-02T11:47:44.548Z,13.15
2022-11-02T11:50:22.626Z,13.46
2022-11-02T11:53:24.072Z,13.69
2022-11-02T11:55:55.033Z,14.11
2022-11-02T11:58:25.695Z,13.53
2022-11-02T12:01:09.258Z,13.11
2022-11-02T12:03:53.264Z,12.78
2022-11-02T12:06:30.710Z,12.60
2022-11-02T12:09:08.071Z,12.59
2022-11-02T12:11:48.845Z,12.49
2022-11-02T12:14:40.560Z,12.31
2022-11-02T12:17:31.994Z,12.27
2022-11-02T12:20:36.099Z,12.65
2022-11-02T12:23:20.352Z,12.38
2022-11-02T12:25:59.180Z,12.23
2022-11-02T12:28:39.005Z,12.19
2022-11-02T12:31:23.528Z,12.32
2022-11-02T12:34:16.625Z,12.66
2022-11-02T12:37:32.808Z,13.01
2022-11-02T12:40:05.259Z,12.83
2022-11-02T12:42:43.220Z,13.09
2022-11-02T12:45:27.292Z,13.34
2022-11-02T12:48:01.096Z,13.99
2022-11-02T12:50:54.312Z,14.04
2022-11-02T12:53:36.702Z,14.00
2022-11-02T12:56:09.339Z,13.93
2022-11-02T12:58:41.869Z,14.20
2022-11-02T13:01:18.350Z,14.26
2022-11-02T13:03:54.215Z,13.83
2022-11-02T13:06:29.913Z,13.88
2022-11-02T13:09:05.143Z,14.08
2022-11-02T13:11:38.379Z,14.46
2022-11-02T13:14:15.503Z,15.06
2022-11-02T13:16:49.937Z,14.70
2022-11-02T13:19:24.210Z,14.15
2022-11-02T13:21:56.833Z,13.83
2022-11-02T13:24:32.249Z,13.58
2022-11-02T13:27:22.080Z,13.65
2022-11-02T13:30:00.333Z,13.80
2022-11-02T13:32:34.340Z,12.75
2022-11-02T13:35:13.790Z,11.91
2022-11-02T13:37:46.081Z,11.41
2022-11-02T13:40:21.969Z,11.46
2022-11-02T13:43:19.771Z,11.51
2022-11-02T13:46:07.587Z,11.40
2022-11-02T13:48:54.934Z,11.34
2022-11-02T13:51:35.665Z,11.26
2022-11-02T13:54:09.137Z,11.28
2022-11-02T13:56:39.487Z,11.16
2022-11-02T13:59:17.784Z,11.18
2022-11-02T14:01:48.869Z,11.40
2022-11-02T14:04:18.474Z,11.89
2022-11-02T14:06:54.459Z,13.13
2022-11-02T14:09:29.102Z,13.17
2022-11-02T14:12:29.627Z,13.50
2022-11-02T14:15:49.735Z,13.13
2022-11-02T14:18:31.402Z,12.78
2022-11-02T14:21:22.522Z,13.00
2022-11-02T14:23:52.824Z,13.00
2022-11-02T14:26:55.409Z,12.91
2022-11-02T14:29:52.075Z,12.96
2022-11-02T14:32:34.681Z,12.84
2022-11-02T14:35:27.757Z,12.75
2022-11-02T14:38:15.638Z,12.70
2022-11-02T14:40:55.994Z,12.69
2022-11-02T14:43:45.517Z,12.70
2022-11-02T14:46:33.820Z,12.75
2022-11-02T14:49:05.601Z,12.84
2022-11-02T14:51:37.564Z,12.74
2022-11-02T14:54:16.720Z,12.69
2022-11-02T14:56:53.759Z,12.60
2022-11-02T14:59:29.152Z,12.55
2022-11-02T15:02:01.942Z,12.46
2022-11-02T15:04:34.448Z,12.40
2022-11-02T15:07:06.653Z,12.39
2022-11-02T15:09:57.130Z,12.26
2022-11-02T15:12:34.061Z,12.27
2022-11-02T15:15:31.292Z,12.30
2022-11-02T15:18:25.276Z,12.16
2022-11-02T15:21:28.903Z,12.04
2022-11-02T15:24:17.397Z,11.96
2022-11-02T15:26:52.653Z,11.90
2022-11-02T15:29:41.477Z,11.87
2022-11-02T15:32:22.536Z,11.86
2022-11-02T15:34:54.443Z,11.76
2022-11-02T15:37:29.366Z,11.73
2022-11-02T15:40:00.541Z,11.62
2022-11-02T15:42:40.056Z,11.58
2022-11-02T15:45:46.751Z,11.59
2022-11-02T15:48:31.099Z,11.43
2022-11-02T15:51:07.120Z,11.37
2022-11-02T15:54:04.378Z,11.47
2022-11-02T15:56:48.259Z,11.35
2022-11-02T15:59:42.680Z,11.26
2022-11-02T16:02:23.157Z,11.20
2022-11-02T16:04:54.701Z,11.12
2022-11-02T16:07:33.484Z,10.88
2022-11-02T16:10:26.406Z,10.84
2022-11-02T16:13:00.497Z,10.83
2022-11-02T16:15:30.320Z,10.80
2022-11-02T16:18:00.609Z,10.84
2022-11-02T16:20:31.984Z,10.65
2022-11-02T16:23:04.272Z,10.64
2022-11-02T16:25:39.720Z,10.59
2022-11-02T16:28:19.280Z,10.56
2022-11-02T16:31:15.850Z,10.46
2022-11-02T16:33:53.246Z,10.26
2022-11-02T16:36:25.097Z,10.31
2022-11-02T16:39:00.641Z,10.35
2022-11-02T16:41:32.357Z,10.33
2022-11-02T16:44:08.682Z,10.26
2022-11-02T16:46:44.086Z,10.36
2022-11-02T16:49:18.476Z,10.29
2022-11-02T16:51:53.201Z,10.30
2022-11-02T16:54:31.609Z,10.16
2022-11-02T16:57:10.257Z,10.32
2022-11-02T16:59:52.712Z,10.36
2022-11-02T17:02:34.104Z,10.33
2022-11-02T17:05:07.268Z,10.09
2022-11-02T17:07:39.761Z,10.14
2022-11-02T17:10:10.498Z,10.09
2022-11-02T17:12:43.904Z,9.99
2022-11-02T17:15:18.260Z,9.94
2022-11-02T17:17:47.942Z,9.78
2022-11-02T17:20:21.917Z,9.69
2022-11-02T17:22:54.211Z,9.64
2022-11-02T17:25:25.384Z,9.60
2022-11-02T17:27:55.761Z,9.68
2022-11-02T17:30:44.857Z,9.73
2022-11-02T17:33:25.620Z,10.01
2022-11-02T17:35:57.523Z,9.92
2022-11-02T17:38:28.386Z,9.88
2022-11-02T17:41:00.141Z,9.78
2022-11-02T17:43:28.619Z,9.65
2022-11-02T17:45:59.331Z,9.66
2022-11-02T17:48:29.364Z,9.59
2022-11-02T17:51:00.622Z,9.50
2022-11-02T17:53:29.614Z,9.44
2022-11-02T17:55:58.720Z,9.42
2022-11-02T17:58:27.653Z,9.33
2022-11-02T18:00:56.747Z,9.31
2022-11-02T18:03:31.108Z,9.26
2022-11-02T18:06:01.924Z,9.15
2022-11-02T18:08:31.011Z,9.18
2022-11-02T18:10:59.955Z,9.30
2022-11-02T18:13:28.948Z,9.29
2022-11-02T18:15:57.849Z,9.45
2022-11-02T18:18:27.081Z,9.66
2022-11-02T18:20:56.456Z,9.52
2022-11-02T18:23:27.799Z,9.60
2022-11-02T18:25:59.368Z,9.48
2022-11-02T18:28:28.488Z,9.40
2022-11-02T18:30:57.718Z,9.47
2022-11-02T18:33:27.359Z,9.31
2022-11-02T18:36:04.558Z,9.57
2022-11-02T18:38:35.284Z,9.48
2022-11-02T18:41:25.882Z,9.38
2022-11-02T18:44:02.249Z,9.30
2022-11-02T18:46:33.899Z,9.31
2022-11-02T18:49:03.224Z,9.25
2022-11-02T18:51:32.148Z,9.17
2022-11-02T18:54:04.221Z,9.07
2022-11-02T18:56:33.284Z,9.08
2022-11-02T18:59:02.727Z,8.99
2022-11-02T19:01:31.841Z,8.98
2022-11-02T19:04:01.591Z,8.86
2022-11-02T19:06:50.442Z,8.86
2022-11-02T19:09:24.398Z,8.76
2022-11-02T19:11:56.610Z,8.75
2022-11-02T19:14:26.173Z,8.71
2022-11-02T19:16:55.283Z,8.67
2022-11-02T19:19:24.225Z,8.52
2022-11-02T19:21:53.523Z,8.44
2022-11-02T19:24:24.342Z,8.37
2022-11-02T19:26:53.980Z,8.28
2022-11-02T19:29:22.993Z,8.22
2022-11-02T19:31:52.143Z,8.17
2022-11-02T19:34:24.137Z,8.05
2022-11-02T19:36:53.723Z,7.94
2022-11-02T19:39:24.152Z,7.90
2022-11-02T19:41:54.296Z,7.81
2022-11-02T19:44:23.280Z,7.80
2022-11-02T19:46:52.467Z,7.84
2022-11-02T19:49:21.651Z,7.81
2022-11-02T19:51:50.974Z,7.83
2022-11-02T19:54:20.589Z,7.81
2022-11-02T19:56:50.855Z,7.73
2022-11-02T19:59:19.857Z,7.70
2022-11-02T20:01:50.501Z,7.68
2022-11-02T20:04:19.715Z,7.61
2022-11-02T20:06:48.656Z,7.56
2022-11-02T20:09:19.381Z,7.66
2022-11-02T20:11:50.504Z,7.69
2022-11-02T20:14:19.544Z,7.64
2022-11-02T20:16:58.705Z,7.59
2022-11-02T20:19:37.735Z,7.64
2022-11-02T20:22:07.039Z,7.56
2022-11-02T20:24:36.089Z,7.59
2022-11-02T20:27:07.871Z,7.60
2022-11-02T20:29:40.516Z,7.57
2022-11-02T20:32:10.225Z,7.62
2022-11-02T20:34:39.192Z,7.57
2022-11-02T20:37:08.177Z,7.46
2022-11-02T20:39:37.143Z,7.50
2022-11-02T20:42:09.248Z,7.45
2022-11-02T20:44:38.328Z,7.41
2022-11-02T20:47:07.232Z,7.43
2022-11-02T20:49:49.982Z,7.44
2022-11-02T20:52:21.896Z,7.43
2022-11-02T20:54:50.930Z,7.45
2022-11-02T20:57:22.397Z,7.37
2022-11-02T20:59:51.334Z,7.44
2022-11-02T21:02:22.141Z,7.39
2022-11-02T21:04:51.559Z,7.41
2022-11-02T21:07:20.459Z,7.38
2022-11-02T21:09:49.416Z,7.46
2022-11-02T21:12:37.232Z,7.51
2022-11-02T21:15:07.336Z,7.43
2022-11-02T21:17:36.684Z,7.41
2022-11-02T21:23:00.337Z,7.22
2022-11-02T21:25:29.252Z,7.32
2022-11-02T21:27:59.936Z,7.26
2022-11-02T21:30:30.900Z,7.27
2022-11-02T21:32:59.999Z,7.33
2022-11-02T21:35:28.919Z,7.28
2022-11-02T21:38:01.232Z,7.23
2022-11-02T21:40:32.765Z,7.18
2022-11-02T21:43:03.237Z,7.26
2022-11-02T21:45:37.602Z,7.18
2022-11-02T21:48:07.165Z,7.28
2022-11-02T21:50:36.121Z,7.16
2022-11-02T21:53:05.301Z,7.27
2022-11-02T21:55:34.580Z,7.24
2022-11-02T21:58:04.949Z,7.37
2022-11-02T22:00:47.898Z,7.32
2022-11-02T22:03:17.014Z,7.29
2022-11-02T22:05:59.308Z,7.24
2022-11-02T22:08:40.399Z,7.33
2022-11-02T22:11:11.410Z,7.32
2022-11-02T22:13:42.970Z,7.32
2022-11-02T22:16:15.334Z,7.24
2022-11-02T22:18:45.619Z,7.20
2022-11-02T22:21:15.527Z,7.11
2022-11-02T22:23:46.644Z,7.09
2022-11-02T22:26:17.010Z,7.10
2022-11-02T22:28:48.350Z,7.11
2022-11-02T22:31:19.347Z,7.09
2022-11-02T22:33:49.720Z,7.04
2022-11-02T22:36:20.460Z,6.99
2022-11-02T22:38:51.018Z,6.87
2022-11-02T22:41:22.066Z,6.78
2022-11-02T22:43:54.257Z,6.69
2022-11-02T22:46:24.384Z,6.73
2022-11-02T22:48:54.852Z,6.63
2022-11-02T22:51:25.935Z,6.62
2022-11-02T22:53:56.001Z,6.51
2022-11-02T22:56:25.294Z,6.50
2022-11-02T22:58:55.889Z,6.58
2022-11-02T23:01:26.720Z,6.47
2022-11-02T23:03:56.247Z,6.48
2022-11-02T23:06:25.825Z,6.39
2022-11-02T23:08:58.438Z,6.37
2022-11-02T23:11:29.089Z,6.33
2022-11-02T23:14:01.386Z,6.38
2022-11-02T23:16:32.370Z,6.48
2022-11-02T23:19:25.045Z,6.40
2022-11-02T23:22:14.442Z,6.39
2022-11-02T23:25:03.120Z,6.46
2022-11-02T23:27:33.209Z,6.45
2022-11-02T23:30:20.956Z,6.53
2022-11-02T23:32:51.265Z,6.70
2022-11-02T23:35:37.526Z,6.55
2022-11-02T23:38:07.581Z,6.57
2022-11-02T23:40:36.551Z,6.61
2022-11-02T23:43:06.122Z,6.56
2022-11-02T23:45:36.732Z,6.59
2022-11-02T23:48:07.570Z,6.61
2022-11-02T23:50:54.755Z,6.66
2022-11-02T23:53:41.441Z,6.56
2022-11-02T23:56:33.537Z,6.53
2022-11-02T23:59:08.882Z,6.43
